createdAt,value
2019-01-19T00:02:32.232Z,96.40
2019-01-19T00:05:18.956Z,96.50
2019-01-19T00:07:59.659Z,96.00
2019-01-19T00:10:56.924Z,95.70
2019-01-19T00:13:34.521Z,95.50
2019-01-19T00:16:11.957Z,95.30
2019-01-19T00:19:09.348Z,95.20
2019-01-19T00:21:50.148Z,95.20
2019-01-19T00:24:27.939Z,95.30
2019-01-19T00:27:30.678Z,95.00
2019-01-19T00:30:17.464Z,94.90
2019-01-19T00:33:04.016Z,94.90
2019-01-19T00:35:53.753Z,94.30
2019-01-19T00:38:34.400Z,93.90
2019-01-19T00:41:06.362Z,93.80
2019-01-19T00:43:35.475Z,93.50
2019-01-19T00:46:16.104Z,93.30
2019-01-19T00:48:47.732Z,93.50
2019-01-19T00:51:34.560Z,93.50
2019-01-19T00:54:21.292Z,93.70
2019-01-19T00:57:09.304Z,94.80
2019-01-19T00:59:37.831Z,95.50
2019-01-19T01:02:22.018Z,95.70
2019-01-19T01:04:56.425Z,95.80
2019-01-19T01:07:53.899Z,96.10
2019-01-19T01:10:28.467Z,96.20
2019-01-19T01:13:18.223Z,96.40
2019-01-19T01:16:02.095Z,96.50
2019-01-19T01:18:49.161Z,96.50
2019-01-19T01:21:35.180Z,96.50
2019-01-19T01:24:33.881Z,96.40
2019-01-19T01:27:17.560Z,96.50
2019-01-19T01:29:52.181Z,96.40
2019-01-19T01:32:38.864Z,96.60
2019-01-19T01:35:19.503Z,96.20
2019-01-19T01:37:57.031Z,96.10
2019-01-19T01:40:43.852Z,95.90
2019-01-19T01:43:18.460Z,95.70
2019-01-19T01:45:52.985Z,95.60
2019-01-19T01:48:47.832Z,95.50
2019-01-19T01:51:34.884Z,95.40
2019-01-19T01:54:23.289Z,95.50
2019-01-19T01:56:51.783Z,95.50
2019-01-19T01:59:35.536Z,95.50
2019-01-19T02:02:09.944Z,95.40
2019-01-19T02:05:10.999Z,95.30
2019-01-19T02:07:45.185Z,95.20
2019-01-19T02:10:50.600Z,95.00
2019-01-19T02:13:33.741Z,94.90
2019-01-19T02:16:17.603Z,95.00
2019-01-19T02:18:49.598Z,95.20
2019-01-19T02:21:24.068Z,95.40
2019-01-19T02:23:58.469Z,95.50
2019-01-19T02:26:33.400Z,95.60
2019-01-19T02:29:10.499Z,95.70
2019-01-19T02:31:47.825Z,95.80
2019-01-19T02:34:19.452Z,96.00
2019-01-19T02:36:53.907Z,95.90
2019-01-19T02:39:31.243Z,95.90
2019-01-19T02:42:22.613Z,96.00
2019-01-19T02:44:56.934Z,96.10
2019-01-19T02:47:53.098Z,96.30
2019-01-19T02:50:39.536Z,96.30
2019-01-19T02:53:25.933Z,96.30
2019-01-19T02:55:57.939Z,96.40
2019-01-19T02:58:50.904Z,96.60
2019-01-19T03:01:31.581Z,96.70
2019-01-19T03:04:08.784Z,96.80
2019-01-19T03:07:01.788Z,97.10
2019-01-19T03:09:45.152Z,97.20
2019-01-19T03:12:25.188Z,97.10
2019-01-19T03:15:16.295Z,97.20
2019-01-19T03:18:00.119Z,97.40
2019-01-19T03:20:43.716Z,97.50
2019-01-19T03:23:15.408Z,97.50
2019-01-19T03:25:52.655Z,97.60
2019-01-19T03:28:24.352Z,97.60
2019-01-19T03:31:04.618Z,97.60
2019-01-19T03:33:51.825Z,97.60
2019-01-19T03:36:51.812Z,97.40
2019-01-19T03:39:32.032Z,97.10
2019-01-19T03:42:12.669Z,96.60
2019-01-19T03:44:50.043Z,95.60
2019-01-19T03:47:21.680Z,95.20
2019-01-19T03:49:59.268Z,95.40
2019-01-19T03:52:30.927Z,94.90
2019-01-19T03:55:19.617Z,95.10
2019-01-19T03:57:54.218Z,95.60
2019-01-19T04:00:31.400Z,95.90
2019-01-19T04:03:26.715Z,96.00
2019-01-19T04:06:12.903Z,96.10
2019-01-19T04:09:08.401Z,96.20
2019-01-19T04:11:42.696Z,96.40
2019-01-19T04:14:47.452Z,96.40
2019-01-19T04:17:24.585Z,96.60
2019-01-19T04:20:02.208Z,96.30
2019-01-19T04:22:33.033Z,96.20
2019-01-19T04:25:04.696Z,96.20
2019-01-19T04:27:33.108Z,96.00
2019-01-19T04:30:01.578Z,95.50
2019-01-19T04:32:29.935Z,95.60
2019-01-19T04:34:58.337Z,95.70
2019-01-19T04:37:26.720Z,95.70
2019-01-19T04:39:55.127Z,95.60
2019-01-19T04:42:23.774Z,95.70
2019-01-19T04:44:52.221Z,95.60
2019-01-19T04:47:20.688Z,95.70
2019-01-19T04:49:49.085Z,96.00
2019-01-19T04:52:17.459Z,95.50
2019-01-19T04:54:45.944Z,95.30
2019-01-19T04:57:14.325Z,94.80
2019-01-19T04:59:42.815Z,94.90
2019-01-19T05:02:11.189Z,94.80
2019-01-19T05:04:39.726Z,94.80
2019-01-19T05:07:08.385Z,94.80
2019-01-19T05:09:36.760Z,94.90
2019-01-19T05:12:05.161Z,95.00
2019-01-19T05:14:33.559Z,95.20
2019-01-19T05:17:01.939Z,95.30
2019-01-19T05:19:30.418Z,95.30
2019-01-19T05:21:58.813Z,95.50
2019-01-19T05:24:27.264Z,95.50
2019-01-19T05:26:55.719Z,95.50
2019-01-19T05:29:24.047Z,95.70
2019-01-19T05:31:52.531Z,95.80
2019-01-19T05:34:20.932Z,95.90
2019-01-19T05:36:49.445Z,96.00
2019-01-19T05:39:17.901Z,96.00
2019-01-19T05:41:46.303Z,95.90
2019-01-19T05:44:14.681Z,96.00
2019-01-19T05:46:43.079Z,96.00
2019-01-19T05:49:11.452Z,95.80
2019-01-19T05:51:39.872Z,95.90
2019-01-19T05:54:08.256Z,95.80
2019-01-19T05:56:36.912Z,95.80
2019-01-19T05:59:05.294Z,95.80
2019-01-19T06:01:33.982Z,95.80
2019-01-19T06:04:02.356Z,95.50
2019-01-19T06:06:30.784Z,95.80
2019-01-19T06:08:59.172Z,95.80
2019-01-19T06:11:27.591Z,95.70
2019-01-19T06:13:56.070Z,95.50
2019-01-19T06:16:24.478Z,95.60
2019-01-19T06:18:53.624Z,95.60
2019-01-19T06:21:23.582Z,95.80
2019-01-19T06:23:52.027Z,95.60
2019-01-19T06:26:20.397Z,95.60
2019-01-19T06:28:48.759Z,95.50
2019-01-19T06:31:17.416Z,95.60
2019-01-19T06:33:46.648Z,95.50
2019-01-19T06:36:15.095Z,95.70
2019-01-19T06:38:43.729Z,95.70
2019-01-19T06:41:12.213Z,95.80
2019-01-19T06:43:40.873Z,95.80
2019-01-19T06:46:09.260Z,95.80
2019-01-19T06:48:37.689Z,95.80
2019-01-19T06:51:06.063Z,96.00
2019-01-19T06:53:34.462Z,96.30
2019-01-19T06:56:02.845Z,96.50
2019-01-19T06:58:31.299Z,96.20
2019-01-19T07:00:59.642Z,96.10
2019-01-19T07:03:28.051Z,95.90
2019-01-19T07:05:56.437Z,95.80
2019-01-19T07:08:25.145Z,96.10
2019-01-19T07:10:53.820Z,96.10
2019-01-19T07:13:22.220Z,96.30
2019-01-19T07:15:50.603Z,96.20
2019-01-19T07:18:19.005Z,96.30
2019-01-19T07:20:47.406Z,97.30
2019-01-19T07:23:15.884Z,96.80
2019-01-19T07:25:45.510Z,97.00
2019-01-19T07:28:13.977Z,97.00
2019-01-19T07:30:42.355Z,97.00
2019-01-19T07:33:10.758Z,96.90
2019-01-19T07:35:39.190Z,97.10
2019-01-19T07:38:07.587Z,97.10
2019-01-19T07:40:36.544Z,97.10
2019-01-19T07:43:05.812Z,97.30
2019-01-19T07:45:34.612Z,97.40
2019-01-19T07:48:03.557Z,97.50
2019-01-19T07:50:31.981Z,97.60
2019-01-19T07:53:00.651Z,97.40
2019-01-19T07:55:29.066Z,97.50
2019-01-19T07:57:57.431Z,97.40
2019-01-19T08:00:30.771Z,97.30
2019-01-19T08:02:59.179Z,97.30
2019-01-19T08:05:27.564Z,97.20
2019-01-19T08:07:56.035Z,97.20
2019-01-19T08:10:24.446Z,96.90
2019-01-19T08:12:52.860Z,96.80
2019-01-19T08:15:23.670Z,96.80
2019-01-19T08:17:52.088Z,97.00
2019-01-19T08:20:20.476Z,97.10
2019-01-19T08:22:49.154Z,96.80
2019-01-19T08:25:18.625Z,96.50
2019-01-19T08:27:47.093Z,95.90
2019-01-19T08:30:18.503Z,95.50
2019-01-19T08:32:46.920Z,95.40
2019-01-19T08:35:17.199Z,95.00
2019-01-19T08:37:45.739Z,94.40
2019-01-19T08:40:29.733Z,94.20
2019-01-19T08:43:05.847Z,94.70
2019-01-19T08:45:34.650Z,94.60
2019-01-19T08:48:03.890Z,94.90
2019-01-19T08:50:32.361Z,95.10
2019-01-19T08:53:00.693Z,94.70
2019-01-19T08:55:29.206Z,94.80
2019-01-19T08:57:57.598Z,94.90
2019-01-19T09:00:26.076Z,94.60
2019-01-19T09:02:54.461Z,94.30
2019-01-19T09:05:23.118Z,94.20
2019-01-19T09:07:51.492Z,93.90
2019-01-19T09:10:20.231Z,93.70
2019-01-19T09:12:49.128Z,93.60
2019-01-19T09:15:19.720Z,93.70
2019-01-19T09:17:49.168Z,93.50
2019-01-19T09:20:18.032Z,93.90
2019-01-19T09:22:48.132Z,94.70
2019-01-19T09:25:16.696Z,94.90
2019-01-19T09:27:45.075Z,94.50
2019-01-19T09:30:15.956Z,95.20
2019-01-19T09:32:44.505Z,95.20
2019-01-19T09:35:13.301Z,94.40
2019-01-19T09:37:41.851Z,94.20
2019-01-19T09:40:14.977Z,93.40
2019-01-19T09:42:43.623Z,94.10
2019-01-19T09:45:14.421Z,94.10
2019-01-19T09:47:43.205Z,94.90
2019-01-19T09:50:14.685Z,95.70
2019-01-19T09:52:43.091Z,94.90
2019-01-19T09:55:11.537Z,94.10
2019-01-19T09:57:39.957Z,94.80
2019-01-19T10:00:14.177Z,94.70
2019-01-19T10:02:42.556Z,94.40
2019-01-19T10:05:14.264Z,94.30
2019-01-19T10:07:48.402Z,95.40
2019-01-19T10:10:14.320Z,95.40
2019-01-19T10:12:42.699Z,95.60
2019-01-19T10:15:13.664Z,95.60
2019-01-19T10:17:42.041Z,95.20
2019-01-19T10:20:13.388Z,95.90
2019-01-19T10:22:41.763Z,96.10
2019-01-19T10:25:12.729Z,95.40
2019-01-19T10:27:41.099Z,95.50
2019-01-19T10:30:13.078Z,95.40
2019-01-19T10:32:41.476Z,96.00
2019-01-19T10:35:29.341Z,95.60
2019-01-19T10:37:57.725Z,95.90
2019-01-19T10:40:26.148Z,95.40
2019-01-19T10:42:54.629Z,95.20
2019-01-19T10:45:26.273Z,95.40
2019-01-19T10:48:03.631Z,95.50
2019-01-19T10:50:32.009Z,95.50
2019-01-19T10:53:00.427Z,95.20
2019-01-19T10:55:28.813Z,95.50
2019-01-19T10:57:57.230Z,95.40
2019-01-19T11:00:33.499Z,95.90
2019-01-19T11:03:01.912Z,96.50
2019-01-19T11:05:30.530Z,95.80
2019-01-19T11:08:03.535Z,95.80
2019-01-19T11:10:31.935Z,95.70
2019-01-19T11:13:00.327Z,96.10
2019-01-19T11:15:28.731Z,95.80
2019-01-19T11:17:57.413Z,95.60
2019-01-19T11:20:27.653Z,95.30
2019-01-19T11:22:58.461Z,96.00
2019-01-19T11:25:27.377Z,95.80
2019-01-19T11:27:57.188Z,96.10
2019-01-19T11:30:30.316Z,95.90
2019-01-19T11:32:58.695Z,95.60
2019-01-19T11:35:27.118Z,96.20
2019-01-19T11:37:55.486Z,96.30
2019-01-19T11:40:35.395Z,96.20
2019-01-19T11:43:04.543Z,95.90
2019-01-19T11:45:33.011Z,95.70
2019-01-19T11:48:01.825Z,94.60
2019-01-19T11:50:30.594Z,95.60
2019-01-19T11:52:59.489Z,96.30
2019-01-19T11:55:28.235Z,94.90
2019-01-19T11:57:59.563Z,94.90
2019-01-19T12:00:36.225Z,95.10
2019-01-19T12:03:05.436Z,95.00
2019-01-19T12:05:33.897Z,95.30
2019-01-19T12:08:02.379Z,95.70
2019-01-19T12:10:31.668Z,95.30
2019-01-19T12:13:00.109Z,95.40
2019-01-19T12:15:28.917Z,95.90
2019-01-19T12:17:57.328Z,94.90
2019-01-19T12:20:31.110Z,94.90
2019-01-19T12:23:00.028Z,95.00
2019-01-19T12:25:28.407Z,94.00
2019-01-19T12:27:56.793Z,94.70
2019-01-19T12:30:30.361Z,94.30
2019-01-19T12:32:58.757Z,97.10
2019-01-19T12:35:27.405Z,94.40
2019-01-19T12:37:56.123Z,94.50
2019-01-19T12:40:26.641Z,94.50
2019-01-19T12:43:12.937Z,93.30
2019-01-19T12:45:44.300Z,93.60
2019-01-19T12:48:12.687Z,93.20
2019-01-19T12:50:41.625Z,93.40
2019-01-19T12:53:09.981Z,92.80
2019-01-19T12:55:38.396Z,94.10
2019-01-19T12:58:08.050Z,92.90
2019-01-19T13:00:36.443Z,93.00
2019-01-19T13:03:05.589Z,92.20
2019-01-19T13:05:43.181Z,92.60
2019-01-19T13:08:15.516Z,92.40
2019-01-19T13:10:49.684Z,92.40
2019-01-19T13:13:18.062Z,93.00
2019-01-19T13:15:49.706Z,93.60
2019-01-19T13:18:24.486Z,92.20
2019-01-19T13:21:02.230Z,92.80
2019-01-19T13:24:18.718Z,92.70
2019-01-19T13:26:56.641Z,92.60
2019-01-19T13:29:31.333Z,93.00
2019-01-19T13:32:18.124Z,93.20
2019-01-19T13:34:58.878Z,93.60
2019-01-19T13:37:45.398Z,92.40
2019-01-19T13:40:25.897Z,92.30
2019-01-19T13:43:06.957Z,91.70
2019-01-19T13:45:51.562Z,91.10
2019-01-19T13:48:35.013Z,93.10
2019-01-19T13:51:22.215Z,91.70
2019-01-19T13:54:02.754Z,91.50
2019-01-19T13:56:43.504Z,91.90
2019-01-19T13:59:38.954Z,91.30
2019-01-19T14:02:19.443Z,91.90
2019-01-19T14:05:16.854Z,91.90
2019-01-19T14:08:04.855Z,91.20
2019-01-19T14:11:06.345Z,91.80
2019-01-19T14:14:06.329Z,92.40
2019-01-19T14:16:37.969Z,92.30
2019-01-19T14:19:35.570Z,92.30
2019-01-19T14:22:26.376Z,92.30
2019-01-19T14:25:09.979Z,92.10
2019-01-19T14:27:53.533Z,92.40
2019-01-19T14:30:37.404Z,94.00
2019-01-19T14:33:32.700Z,91.30
2019-01-19T14:36:14.402Z,91.90
2019-01-19T14:38:56.551Z,92.40
2019-01-19T14:41:40.325Z,92.90
2019-01-19T14:44:26.796Z,92.60
2019-01-19T14:47:12.849Z,92.90
2019-01-19T14:49:53.349Z,91.60
2019-01-19T14:52:40.032Z,91.70
2019-01-19T14:55:26.487Z,91.90
2019-01-19T14:58:31.087Z,92.30
2019-01-19T15:01:05.489Z,91.60
2019-01-19T15:03:45.770Z,92.40
2019-01-19T15:06:25.990Z,93.20
2019-01-19T15:09:12.932Z,92.50
2019-01-19T15:11:56.753Z,91.50
2019-01-19T15:14:34.551Z,92.00
2019-01-19T15:17:18.123Z,91.30
2019-01-19T15:20:09.229Z,91.90
2019-01-19T15:22:47.028Z,89.30
2019-01-19T15:25:48.077Z,90.60
2019-01-19T15:28:37.932Z,91.60
2019-01-19T15:31:16.977Z,93.20
2019-01-19T15:34:05.229Z,92.90
2019-01-19T15:37:08.976Z,93.10
2019-01-19T15:39:43.617Z,92.70
2019-01-19T15:42:35.121Z,93.30
2019-01-19T15:45:10.337Z,93.90
2019-01-19T15:48:06.053Z,94.20
2019-01-19T15:51:09.688Z,97.20
2019-01-19T15:53:49.873Z,94.20
2019-01-19T15:56:30.620Z,94.60
2019-01-19T15:59:21.379Z,94.50
2019-01-19T16:01:55.791Z,94.60
2019-01-19T16:04:48.619Z,94.80
2019-01-19T16:07:51.891Z,95.20
2019-01-19T16:10:29.703Z,94.90
2019-01-19T16:13:13.335Z,94.80
2019-01-19T16:15:56.736Z,94.90
2019-01-19T16:18:52.888Z,94.90
2019-01-19T16:21:41.259Z,94.90
2019-01-19T16:24:16.049Z,95.10
2019-01-19T16:26:47.715Z,95.10
2019-01-19T16:29:20.402Z,95.20
2019-01-19T16:31:52.031Z,95.30
2019-01-19T16:34:38.993Z,95.50
2019-01-19T16:37:16.868Z,95.60
2019-01-19T16:40:06.640Z,95.70
2019-01-19T16:42:53.002Z,95.80
2019-01-19T16:45:27.349Z,96.00
2019-01-19T16:48:19.952Z,96.20
2019-01-19T16:50:51.640Z,96.50
2019-01-19T16:53:45.871Z,96.30
2019-01-19T16:56:18.030Z,96.80
2019-01-19T16:59:07.964Z,96.50
2019-01-19T17:01:54.003Z,96.50
2019-01-19T17:04:25.897Z,96.60
2019-01-19T17:07:14.239Z,96.70
2019-01-19T17:09:57.550Z,96.80
2019-01-19T17:12:38.173Z,96.70
2019-01-19T17:15:21.115Z,96.80
2019-01-19T17:17:58.511Z,97.00
2019-01-19T17:20:39.005Z,97.00
2019-01-19T17:23:25.022Z,97.10
2019-01-19T17:26:05.544Z,97.20
2019-01-19T17:28:43.558Z,97.30
2019-01-19T17:31:23.834Z,97.30
2019-01-19T17:34:07.632Z,97.30
2019-01-19T17:36:39.348Z,97.40
2019-01-19T17:39:26.108Z,97.40
2019-01-19T17:42:09.861Z,97.50
2019-01-19T17:44:50.665Z,97.40
2019-01-19T17:47:25.093Z,97.40
2019-01-19T17:50:05.568Z,97.50
2019-01-19T17:52:40.193Z,97.50
2019-01-19T17:55:26.780Z,97.50
2019-01-19T17:58:15.350Z,97.60
2019-01-19T18:00:58.985Z,97.70
2019-01-19T18:04:00.778Z,97.70
2019-01-19T18:06:50.525Z,98.20
2019-01-19T18:09:30.472Z,97.90
2019-01-19T18:12:07.772Z,98.00
2019-01-19T18:14:42.175Z,98.00
2019-01-19T18:17:13.854Z,98.10
2019-01-19T18:19:56.297Z,98.20
2019-01-19T18:22:33.704Z,98.10
2019-01-19T18:25:26.818Z,98.10
2019-01-19T18:28:10.628Z,98.30
2019-01-19T18:30:48.196Z,98.20
2019-01-19T18:33:29.775Z,98.10
2019-01-19T18:36:07.040Z,98.10
2019-01-19T18:38:50.829Z,98.10
2019-01-19T18:41:40.864Z,98.10
2019-01-19T18:44:34.704Z,98.10
2019-01-19T18:47:17.741Z,98.10
2019-01-19T18:50:22.308Z,98.20
2019-01-19T18:53:00.130Z,98.20
2019-01-19T18:55:49.585Z,98.30
2019-01-19T18:58:43.525Z,98.30
2019-01-19T19:01:24.015Z,98.40
2019-01-19T19:04:01.152Z,98.40
2019-01-19T19:06:49.102Z,98.50
2019-01-19T19:09:20.744Z,98.50
2019-01-19T19:12:11.917Z,98.40
2019-01-19T19:14:49.516Z,98.50
2019-01-19T19:17:29.843Z,98.60
2019-01-19T19:20:04.549Z,98.50
2019-01-19T19:22:44.792Z,98.40
2019-01-19T19:25:28.444Z,98.40
2019-01-19T19:28:02.708Z,98.40
2019-01-19T19:30:43.381Z,98.40
2019-01-19T19:33:33.164Z,98.50
2019-01-19T19:36:29.230Z,98.50
2019-01-19T19:39:13.018Z,98.60
2019-01-19T19:41:56.780Z,98.70
2019-01-19T19:44:31.427Z,98.80
2019-01-19T19:47:23.906Z,98.90
2019-01-19T19:50:15.328Z,98.90
2019-01-19T19:52:43.708Z,99.00
2019-01-19T19:55:11.225Z,98.60
2019-01-19T19:57:39.605Z,98.90
2019-01-19T20:00:09.996Z,99.10
2019-01-19T20:02:38.421Z,98.90
2019-01-19T20:05:09.360Z,98.90
2019-01-19T20:07:37.829Z,98.90
2019-01-19T20:10:16.961Z,98.80
2019-01-19T20:12:42.777Z,98.90
2019-01-19T20:15:11.195Z,98.90
2019-01-19T20:17:39.936Z,98.90
2019-01-19T20:20:11.684Z,99.10
2019-01-19T20:22:40.061Z,99.00
2019-01-19T20:25:08.655Z,99.00
2019-01-19T20:27:37.031Z,99.20
2019-01-19T20:30:11.599Z,99.20
2019-01-19T20:32:39.972Z,99.10
2019-01-19T20:35:08.668Z,99.10
2019-01-19T20:37:37.309Z,99.10
2019-01-19T20:40:08.245Z,99.20
2019-01-19T20:42:36.641Z,99.20
2019-01-19T20:45:11.292Z,99.20
2019-01-19T20:47:39.673Z,99.20
2019-01-19T20:50:10.437Z,99.90
2019-01-19T20:52:38.815Z,99.80
2019-01-19T20:55:09.376Z,99.90
2019-01-19T20:57:37.761Z,99.90
2019-01-19T21:00:15.330Z,99.90
2019-01-19T21:02:43.751Z,99.90
2019-01-19T21:05:12.144Z,99.90
2019-01-19T21:07:40.523Z,99.90
2019-01-19T21:10:09.100Z,99.90
2019-01-19T21:12:37.500Z,99.90
2019-01-19T21:15:09.171Z,99.90
2019-01-19T21:17:37.552Z,99.90
2019-01-19T21:20:08.600Z,99.90
2019-01-19T21:22:36.976Z,99.90
2019-01-19T21:25:07.016Z,99.90
2019-01-19T21:27:35.398Z,99.90
2019-01-19T21:30:05.129Z,99.90
2019-01-19T21:32:33.507Z,99.90
2019-01-19T21:35:01.915Z,99.90
2019-01-19T21:37:30.344Z,99.90
2019-01-19T21:39:58.797Z,99.90
2019-01-19T21:42:27.144Z,99.90
2019-01-19T21:44:55.549Z,99.90
2019-01-19T21:47:23.936Z,99.90
2019-01-19T21:49:52.320Z,99.90
2019-01-19T21:52:20.967Z,99.90
2019-01-19T21:54:49.420Z,99.90
2019-01-19T21:57:17.804Z,99.90
2019-01-19T21:59:46.188Z,99.90
2019-01-19T22:02:14.594Z,99.80
2019-01-19T22:04:42.969Z,99.90
2019-01-19T22:07:11.392Z,99.90
2019-01-19T22:09:40.251Z,99.90
2019-01-19T22:12:09.698Z,99.90
2019-01-19T22:14:38.144Z,99.90
2019-01-19T22:17:06.549Z,99.90
2019-01-19T22:19:34.924Z,99.90
2019-01-19T22:22:03.332Z,99.90
2019-01-19T22:24:31.709Z,99.90
2019-01-19T22:27:00.399Z,99.90
2019-01-19T22:29:28.827Z,99.90
2019-01-19T22:31:57.231Z,99.90
2019-01-19T22:34:25.616Z,99.90
2019-01-19T22:36:54.383Z,99.90
2019-01-19T22:39:22.775Z,99.90
2019-01-19T22:41:51.259Z,99.90
2019-01-19T22:44:19.637Z,99.90
2019-01-19T22:46:48.043Z,99.90
2019-01-19T22:49:16.427Z,99.90
2019-01-19T22:51:44.829Z,99.90
2019-01-19T22:54:13.236Z,99.90
2019-01-19T22:56:41.640Z,99.90
2019-01-19T22:59:10.034Z,99.90
2019-01-19T23:01:38.493Z,99.80
2019-01-19T23:04:06.872Z,99.70
2019-01-19T23:06:35.297Z,99.60
2019-01-19T23:09:06.793Z,99.50
2019-01-19T23:11:35.199Z,99.40
2019-01-19T23:14:04.766Z,99.40
2019-01-19T23:16:33.164Z,99.40
2019-01-19T23:19:01.546Z,99.40
2019-01-19T23:21:29.953Z,99.30
2019-01-19T23:23:58.630Z,99.30
2019-01-19T23:26:27.540Z,99.10
2019-01-19T23:28:55.924Z,99.10
2019-01-19T23:31:24.322Z,98.90
2019-01-19T23:33:52.780Z,98.90
2019-01-19T23:36:21.151Z,98.80
2019-01-19T23:38:49.560Z,98.70
2019-01-19T23:41:17.939Z,98.60
2019-01-19T23:43:46.340Z,98.40
2019-01-19T23:46:14.727Z,98.40
2019-01-19T23:48:43.124Z,98.70
2019-01-19T23:51:11.546Z,98.20
2019-01-19T23:53:40.057Z,98.10
2019-01-19T23:56:08.738Z,97.90
2019-01-19T23:58:37.161Z,97.80
